Time;durP1;ratioP1;P1;durP2;ratioP2;P2;SDS_P1;SDS_P2;PMS_P1;PMS_P2;Temp;Humidity;BMP_temperature;BMP_pressure;BME280_temperature;BME280_humidity;BME280_pressure;Samples;Min_cycle;Max_cycle;Signal;HPM_P1;HPM_P2
2023/08/22 00:02:05;;;;;;;9.00;5.22;;;15.00;99.90;;;;;;5058350;28;20055;-27
2023/08/22 00:04:31;;;;;;;7.72;6.15;;;15.00;99.90;;;;;;5063236;28;20045;-28
2023/08/22 00:06:56;;;;;;;8.45;6.80;;;15.10;99.90;;;;;;5059706;28;20086;-28
2023/08/22 00:09:22;;;;;;;9.75;7.82;;;15.10;99.90;;;;;;5056385;28;20052;-27
2023/08/22 00:11:48;;;;;;;12.65;7.88;;;15.20;99.90;;;;;;5056104;28;20064;-25
2023/08/22 00:14:14;;;;;;;12.07;8.48;;;15.20;99.90;;;;;;5057061;28;20041;-27
2023/08/22 00:16:39;;;;;;;10.60;9.35;;;15.20;99.90;;;;;;5057293;28;20036;-27
2023/08/22 00:19:05;;;;;;;13.70;9.48;;;15.30;99.90;;;;;;5055445;28;20045;-27
2023/08/22 00:21:30;;;;;;;19.23;10.93;;;15.30;99.90;;;;;;5056244;28;20051;-27
2023/08/22 00:23:58;;;;;;;17.38;11.52;;;15.30;99.90;;;;;;5062923;28;20040;-27
2023/08/22 00:26:24;;;;;;;20.67;11.50;;;15.40;99.90;;;;;;5058232;28;20449;-25
2023/08/22 00:28:49;;;;;;;19.92;10.40;;;15.40;99.90;;;;;;5074590;28;20048;-27
2023/08/22 00:31:15;;;;;;;15.70;11.07;;;15.40;99.90;;;;;;5069764;28;20110;-27
2023/08/22 00:33:41;;;;;;;15.30;10.32;;;15.40;99.90;;;;;;5058120;28;20041;-27
2023/08/22 00:36:07;;;;;;;15.20;9.82;;;15.40;99.90;;;;;;5060923;28;20051;-27
2023/08/22 00:38:32;;;;;;;15.23;9.88;;;15.30;99.90;;;;;;5074892;28;20083;-27
2023/08/22 00:40:58;;;;;;;17.48;7.95;;;15.30;99.90;;;;;;5075204;28;20524;-27
2023/08/22 00:43:24;;;;;;;16.13;7.32;;;15.20;99.90;;;;;;5075142;28;20528;-27
2023/08/22 00:45:49;;;;;;;12.27;7.20;;;15.00;99.90;;;;;;5076570;28;20047;-27
2023/08/22 00:48:15;;;;;;;37.25;8.15;;;14.80;99.90;;;;;;5070465;28;20525;-26
2023/08/22 00:50:41;;;;;;;7.25;5.50;;;14.60;99.90;;;;;;5065075;28;20045;-27
2023/08/22 00:53:07;;;;;;;562.55;30.75;;;14.50;99.90;;;;;;5070478;28;20057;-26
2023/08/22 00:55:33;;;;;;;401.35;21.88;;;14.40;99.90;;;;;;5055165;28;20052;-27
2023/08/22 00:57:59;;;;;;;7.82;6.75;;;14.30;99.90;;;;;;5054855;28;20083;-27
2023/08/22 01:00:25;;;;;;;527.25;31.10;;;14.20;99.90;;;;;;5062435;28;20131;-27
2023/08/22 01:02:51;;;;;;;181.65;15.52;;;14.20;99.90;;;;;;5055662;28;20115;-27
2023/08/22 01:05:17;;;;;;;78.38;11.63;;;14.20;99.90;;;;;;5055588;28;20040;-27
2023/08/22 01:07:53;;;;;;;61.08;9.30;;;14.20;99.90;;;;;;5055326;28;20045;-27
2023/08/22 01:10:32;;;;;;;10.65;6.68;;;14.20;99.90;;;;;;5058933;28;20036;-25
2023/08/22 01:13:12;;;;;;;13.82;9.10;;;14.20;99.90;;;;;;5058067;28;20059;-27
2023/08/22 01:15:40;;;;;;;13.82;10.23;;;14.20;99.90;;;;;;5059068;28;20033;-26
2023/08/22 01:18:07;;;;;;;12.73;10.07;;;14.30;99.90;;;;;;5074089;28;20060;-24
2023/08/22 01:20:34;;;;;;;16.77;12.60;;;14.40;99.90;;;;;;5053858;28;20763;-25
2023/08/22 01:23:00;;;;;;;15.07;11.10;;;14.50;99.90;;;;;;5055016;28;20052;-27
2023/08/22 01:25:29;;;;;;;17.65;12.23;;;14.60;99.90;;;;;;5054115;28;20053;-26
2023/08/22 01:28:11;;;;;;;20.00;12.50;;;14.70;99.90;;;;;;5054971;28;20107;-27
2023/08/22 01:30:47;;;;;;;20.17;12.80;;;14.70;99.90;;;;;;5055798;28;20041;-26
2023/08/22 01:33:28;;;;;;;19.45;13.02;;;14.80;99.90;;;;;;5066199;28;20528;-25
2023/08/22 01:35:55;;;;;;;26.23;16.77;;;14.80;99.90;;;;;;5054749;28;20498;-27
2023/08/22 01:38:24;;;;;;;24.67;15.80;;;14.80;99.90;;;;;;5066979;28;20043;-27
2023/08/22 01:40:51;;;;;;;29.13;16.65;;;14.80;99.90;;;;;;5074098;28;20048;-25
2023/08/22 01:43:18;;;;;;;26.00;16.35;;;14.90;99.90;;;;;;5075463;28;20109;-25
2023/08/22 01:45:45;;;;;;;29.67;17.92;;;14.80;99.90;;;;;;5073882;28;20094;-26
2023/08/22 01:48:10;;;;;;;27.10;18.90;;;14.90;99.90;;;;;;5074769;28;20049;-26
2023/08/22 01:50:36;;;;;;;30.02;18.58;;;14.90;99.90;;;;;;5061924;28;20094;-25
2023/08/22 01:53:02;;;;;;;30.35;18.23;;;15.00;99.90;;;;;;5055280;28;20098;-26
2023/08/22 01:55:27;;;;;;;29.08;19.00;;;14.90;99.90;;;;;;5053418;28;20040;-26
2023/08/22 01:57:53;;;;;;;36.10;20.27;;;14.90;99.90;;;;;;5055076;28;20048;-26
2023/08/22 02:00:19;;;;;;;30.13;17.05;;;15.00;99.90;;;;;;5055149;28;20493;-26
2023/08/22 02:02:45;;;;;;;44.25;20.70;;;14.90;99.90;;;;;;5054629;28;20051;-26
2023/08/22 02:05:10;;;;;;;35.15;20.98;;;14.90;99.90;;;;;;5054477;28;20041;-26
2023/08/22 02:07:36;;;;;;;34.17;18.90;;;14.90;99.90;;;;;;5054113;28;20178;-26
2023/08/22 02:10:05;;;;;;;30.95;14.15;;;14.80;99.90;;;;;;5053797;28;20048;-26
2023/08/22 02:12:32;;;;;;;131.32;13.68;;;14.80;99.90;;;;;;5054579;28;20061;-26
2023/08/22 02:14:58;;;;;;;276.05;17.60;;;14.50;99.90;;;;;;5053538;28;20052;-25
2023/08/22 02:17:23;;;;;;;280.70;17.67;;;14.30;99.90;;;;;;5054243;28;20433;-26
2023/08/22 02:19:49;;;;;;;211.98;13.80;;;14.20;99.90;;;;;;5061024;28;20076;-25
2023/08/22 02:22:15;;;;;;;153.48;12.73;;;14.00;99.90;;;;;;5054442;28;20395;-26
2023/08/22 02:24:40;;;;;;;9.52;7.95;;;13.90;99.90;;;;;;5054159;28;20475;-26
2023/08/22 02:27:06;;;;;;;17.98;10.75;;;13.80;99.90;;;;;;5058167;28;20049;-25
2023/08/22 02:29:32;;;;;;;13.45;9.77;;;13.80;99.90;;;;;;5057389;28;20095;-25
2023/08/22 02:31:58;;;;;;;13.27;8.18;;;13.80;99.90;;;;;;5056719;28;20052;-25
2023/08/22 02:34:25;;;;;;;17.40;9.80;;;13.80;99.90;;;;;;5065199;28;20094;-25
2023/08/22 02:36:51;;;;;;;10.73;7.15;;;13.80;99.90;;;;;;5074193;28;20413;-25
2023/08/22 02:39:17;;;;;;;12.85;7.47;;;13.80;99.90;;;;;;5054628;28;20056;-26
2023/08/22 02:41:42;;;;;;;13.18;7.03;;;13.80;99.90;;;;;;5054409;28;20098;-25
2023/08/22 02:44:08;;;;;;;8.50;6.13;;;13.70;99.90;;;;;;5053864;28;20037;-25
2023/08/22 02:46:34;;;;;;;11.10;6.53;;;13.70;99.90;;;;;;5053805;28;20406;-27
2023/08/22 02:49:00;;;;;;;11.70;7.55;;;13.60;99.90;;;;;;5057686;28;20083;-25
2023/08/22 02:51:26;;;;;;;12.27;7.38;;;13.60;99.90;;;;;;5055592;28;20048;-25
2023/08/22 02:53:52;;;;;;;11.18;7.32;;;13.50;99.90;;;;;;5053816;28;20072;-25
2023/08/22 02:56:18;;;;;;;12.88;8.65;;;13.50;99.90;;;;;;5052510;28;20487;-26
2023/08/22 02:58:46;;;;;;;521.72;29.20;;;13.40;99.90;;;;;;5053916;28;20053;-26
2023/08/22 03:01:12;;;;;;;80.38;12.60;;;13.40;99.90;;;;;;5053283;28;20376;-26
2023/08/22 03:03:38;;;;;;;29.17;10.23;;;13.50;99.90;;;;;;5036853;28;20053;-25
2023/08/22 03:06:04;;;;;;;18.50;8.98;;;13.50;99.90;;;;;;5053952;28;20451;-26
2023/08/22 03:08:30;;;;;;;17.23;7.25;;;13.50;99.90;;;;;;5053529;28;20041;-25
2023/08/22 03:11:00;;;;;;;10.75;8.15;;;13.40;99.90;;;;;;5052719;28;20051;-25
2023/08/22 03:13:28;;;;;;;13.13;7.93;;;13.40;99.90;;;;;;5065637;28;20049;-25
2023/08/22 03:15:54;;;;;;;12.75;8.98;;;13.50;99.90;;;;;;5073108;28;20437;-25
2023/08/22 03:18:21;;;;;;;10.85;8.15;;;13.50;99.90;;;;;;5070999;28;20049;-25
2023/08/22 03:20:46;;;;;;;12.25;8.20;;;13.40;99.90;;;;;;5060839;28;20045;-25
2023/08/22 03:23:14;;;;;;;14.02;8.85;;;13.40;99.90;;;;;;5053507;28;20099;-25
2023/08/22 03:25:40;;;;;;;14.73;9.65;;;13.40;99.90;;;;;;5052846;28;20041;-25
2023/08/22 03:28:05;;;;;;;18.92;9.05;;;13.50;99.90;;;;;;5066676;28;20103;-25
2023/08/22 03:30:31;;;;;;;11.70;8.48;;;13.50;99.90;;;;;;5054298;28;20510;-25
2023/08/22 03:32:57;;;;;;;15.45;8.27;;;13.50;99.90;;;;;;5067261;28;20051;-25
2023/08/22 03:35:23;;;;;;;48.55;9.57;;;13.50;99.90;;;;;;5054179;28;20394;-25
2023/08/22 03:37:48;;;;;;;12.40;8.68;;;13.50;99.90;;;;;;5052319;28;20056;-25
2023/08/22 03:40:14;;;;;;;33.58;9.23;;;13.60;99.90;;;;;;5053229;28;20041;-25
2023/08/22 03:42:40;;;;;;;20.48;11.32;;;13.60;99.90;;;;;;5057872;28;20053;-24
2023/08/22 03:45:06;;;;;;;11.02;9.20;;;13.70;99.90;;;;;;5073279;28;20043;-25
2023/08/22 03:47:32;;;;;;;14.80;9.60;;;13.70;99.90;;;;;;5065267;28;20072;-25
2023/08/22 03:49:57;;;;;;;22.45;12.68;;;13.70;99.90;;;;;;5053177;28;20140;-25
2023/08/22 03:52:23;;;;;;;16.95;11.85;;;13.70;99.90;;;;;;5053987;28;20045;-25
2023/08/22 03:54:49;;;;;;;16.77;11.45;;;13.60;99.90;;;;;;5035101;28;20080;-25
2023/08/22 03:57:14;;;;;;;25.25;15.13;;;13.60;99.90;;;;;;5057374;28;20045;-25
2023/08/22 03:59:40;;;;;;;14.13;10.02;;;13.60;99.90;;;;;;5064891;28;20041;-25
2023/08/22 04:02:06;;;;;;;24.42;14.25;;;13.50;99.90;;;;;;5053074;28;20111;-25
2023/08/22 04:04:32;;;;;;;23.52;14.80;;;13.40;99.90;;;;;;5053004;28;20087;-25
2023/08/22 04:06:58;;;;;;;34.90;18.92;;;13.40;99.90;;;;;;5053035;28;20076;-25
2023/08/22 04:09:23;;;;;;;27.25;17.58;;;13.40;99.90;;;;;;5053006;28;20395;-25
2023/08/22 04:11:49;;;;;;;31.05;16.77;;;13.30;99.90;;;;;;5053273;28;20065;-24
2023/08/22 04:14:15;;;;;;;27.77;18.25;;;13.40;99.90;;;;;;5052929;28;20037;-24
2023/08/22 04:16:41;;;;;;;31.33;19.15;;;13.40;99.90;;;;;;5052901;28;20051;-25
2023/08/22 04:19:06;;;;;;;31.35;18.85;;;13.40;99.90;;;;;;5052950;28;20045;-25
2023/08/22 04:21:32;;;;;;;34.38;19.52;;;13.50;99.90;;;;;;5052643;28;20109;-23
2023/08/22 04:23:58;;;;;;;36.88;19.90;;;13.60;99.90;;;;;;5064167;28;20073;-25
2023/08/22 04:26:23;;;;;;;36.30;16.95;;;13.60;99.90;;;;;;5038841;28;20547;-24
2023/08/22 04:28:49;;;;;;;40.72;16.92;;;13.50;99.90;;;;;;5056149;28;20047;-24
2023/08/22 04:31:15;;;;;;;35.22;15.60;;;13.50;99.90;;;;;;5056359;28;20136;-25
2023/08/22 04:33:41;;;;;;;19.48;12.90;;;13.50;99.90;;;;;;5065606;28;20472;-24
2023/08/22 04:36:06;;;;;;;22.08;14.20;;;13.60;99.90;;;;;;5062548;28;20064;-24
2023/08/22 04:38:32;;;;;;;21.90;12.98;;;13.40;99.90;;;;;;5056091;28;20037;-24
2023/08/22 04:40:58;;;;;;;21.75;12.95;;;13.50;99.90;;;;;;5056108;28;20072;-25
2023/08/22 04:43:23;;;;;;;22.55;12.25;;;13.40;99.90;;;;;;5059140;28;20063;-24
2023/08/22 04:45:52;;;;;;;26.02;13.90;;;13.30;99.90;;;;;;5064098;28;20096;-24
2023/08/22 04:48:18;;;;;;;19.45;12.98;;;13.30;99.90;;;;;;5056032;28;20415;-24
2023/08/22 04:50:44;;;;;;;20.60;12.40;;;13.30;99.90;;;;;;5075936;28;20040;-24
2023/08/22 04:53:10;;;;;;;14.65;11.23;;;13.20;99.90;;;;;;5071737;28;20045;-24
2023/08/22 04:55:35;;;;;;;23.10;14.98;;;13.20;99.90;;;;;;5062240;28;20072;-24
2023/08/22 04:58:01;;;;;;;27.88;15.25;;;13.30;99.90;;;;;;5057287;28;20045;-24
2023/08/22 05:00:27;;;;;;;24.23;15.90;;;13.20;99.90;;;;;;5054342;28;20049;-24
2023/08/22 05:02:52;;;;;;;34.67;18.83;;;13.30;99.90;;;;;;5054214;28;20211;-24
2023/08/22 05:05:18;;;;;;;90.38;18.95;;;13.40;99.90;;;;;;5055120;28;20099;-24
2023/08/22 05:07:44;;;;;;;125.30;20.67;;;13.40;99.90;;;;;;5063450;28;20037;-24
2023/08/22 05:10:10;;;;;;;38.55;13.07;;;13.50;99.90;;;;;;5055572;28;20045;-24
2023/08/22 05:12:36;;;;;;;80.68;13.93;;;13.50;99.90;;;;;;5055671;28;20052;-23
2023/08/22 05:15:02;;;;;;;61.38;12.55;;;13.50;99.90;;;;;;5054383;28;20051;-24
2023/08/22 05:17:28;;;;;;;62.78;11.10;;;13.60;99.90;;;;;;5063226;28;20119;-24
2023/08/22 05:19:53;;;;;;;67.82;10.18;;;13.50;99.90;;;;;;5054223;28;20132;-25
2023/08/22 05:22:19;;;;;;;62.67;10.68;;;13.60;99.90;;;;;;5062387;28;20053;-24
2023/08/22 05:24:45;;;;;;;34.28;12.10;;;13.50;99.90;;;;;;5061812;28;20115;-24
2023/08/22 05:27:10;;;;;;;32.38;12.95;;;13.50;99.90;;;;;;5061262;28;20045;-24
2023/08/22 05:29:36;;;;;;;46.53;14.30;;;13.50;99.90;;;;;;5056437;28;20043;-23
2023/08/22 05:32:02;;;;;;;24.33;13.23;;;13.70;99.90;;;;;;5053818;28;20040;-24
2023/08/22 05:34:28;;;;;;;28.95;13.10;;;13.60;99.90;;;;;;5062036;28;20040;-24
2023/08/22 05:36:53;;;;;;;21.95;14.70;;;13.80;99.90;;;;;;5055624;28;20387;-24
2023/08/22 05:39:19;;;;;;;28.52;16.20;;;13.80;99.90;;;;;;5053908;28;20449;-24
2023/08/22 05:41:45;;;;;;;33.83;20.42;;;13.80;99.90;;;;;;5054393;28;20498;-24
2023/08/22 05:44:10;;;;;;;28.40;18.17;;;13.90;99.90;;;;;;5053911;28;20086;-24
2023/08/22 05:46:36;;;;;;;29.83;18.65;;;14.10;99.90;;;;;;5053834;28;20084;-24
2023/08/22 05:49:02;;;;;;;32.65;19.60;;;14.20;99.90;;;;;;5055115;28;20041;-24
2023/08/22 05:51:27;;;;;;;31.35;19.35;;;14.30;99.90;;;;;;5037874;28;20041;-24
2023/08/22 05:53:53;;;;;;;38.80;22.00;;;14.50;99.90;;;;;;5053484;28;20143;-24
2023/08/22 05:56:19;;;;;;;31.52;20.95;;;14.60;99.90;;;;;;5055094;28;20047;-24
2023/08/22 05:58:44;;;;;;;33.67;20.95;;;14.70;99.90;;;;;;5054489;28;20447;-24
2023/08/22 06:01:11;;;;;;;37.08;21.98;;;14.90;99.90;;;;;;5054589;28;20045;-25
2023/08/22 06:03:38;;;;;;;37.03;21.70;;;15.10;99.90;;;;;;5053605;28;20087;-25
2023/08/22 06:06:04;;;;;;;33.85;21.73;;;15.20;99.90;;;;;;5055319;28;20182;-24
2023/08/22 06:08:30;;;;;;;30.13;19.00;;;15.20;99.90;;;;;;5053274;28;20041;-24
2023/08/22 06:10:56;;;;;;;29.17;20.13;;;15.30;99.90;;;;;;5053939;28;20071;-24
2023/08/22 06:13:22;;;;;;;27.92;19.25;;;15.40;99.90;;;;;;5039971;28;20052;-24
2023/08/22 06:15:48;;;;;;;28.33;18.75;;;15.40;99.90;;;;;;5053073;28;20048;-25
2023/08/22 06:18:13;;;;;;;25.35;16.52;;;15.70;99.90;;;;;;5053912;28;20045;-25
2023/08/22 06:20:39;;;;;;;28.35;18.27;;;15.80;99.90;;;;;;5057493;28;20044;-24
2023/08/22 06:23:05;;;;;;;29.73;17.88;;;15.90;99.90;;;;;;5046275;28;20517;-24
2023/08/22 06:25:32;;;;;;;26.98;15.82;;;16.00;99.90;;;;;;5063158;28;20090;-25
2023/08/22 06:27:58;;;;;;;25.10;17.02;;;16.10;99.90;;;;;;5073990;28;20080;-25
2023/08/22 06:30:24;;;;;;;23.55;16.20;;;16.10;99.90;;;;;;5073578;28;20088;-24
2023/08/22 06:32:49;;;;;;;19.70;14.93;;;16.10;99.90;;;;;;5074050;28;20120;-25
2023/08/22 06:35:15;;;;;;;24.73;16.00;;;16.20;99.90;;;;;;5074469;28;20041;-25
2023/08/22 06:37:41;;;;;;;23.48;16.27;;;16.40;99.90;;;;;;5073818;28;20048;-25
2023/08/22 06:40:07;;;;;;;21.38;14.02;;;16.50;99.90;;;;;;5059175;28;20044;-25
2023/08/22 06:42:33;;;;;;;21.40;14.77;;;16.70;99.90;;;;;;5053866;28;20098;-25
2023/08/22 06:44:59;;;;;;;22.42;13.57;;;16.90;99.90;;;;;;5053334;28;20080;-25
2023/08/22 06:47:24;;;;;;;19.95;12.82;;;16.90;99.90;;;;;;5054537;28;20053;-25
2023/08/22 06:49:50;;;;;;;18.10;13.50;;;17.10;99.90;;;;;;5053934;28;20505;-26
2023/08/22 06:52:16;;;;;;;19.75;11.90;;;17.30;99.90;;;;;;5053636;28;20582;-25
2023/08/22 06:54:41;;;;;;;13.57;10.52;;;17.40;99.90;;;;;;5054344;28;20044;-26
2023/08/22 06:57:07;;;;;;;16.75;11.10;;;17.60;99.90;;;;;;5053516;28;20552;-25
2023/08/22 06:59:33;;;;;;;17.02;10.50;;;17.70;99.90;;;;;;5052213;28;20075;-25
2023/08/22 07:01:59;;;;;;;12.70;9.35;;;17.90;99.90;;;;;;5054098;28;20092;-25
2023/08/22 07:04:25;;;;;;;16.83;9.50;;;18.10;99.90;;;;;;5056644;28;20502;-25
2023/08/22 07:06:50;;;;;;;14.60;9.02;;;18.10;99.90;;;;;;5054467;28;20049;-26
2023/08/22 07:09:16;;;;;;;10.27;7.32;;;18.10;99.90;;;;;;5053571;28;20110;-26
2023/08/22 07:11:42;;;;;;;13.13;8.52;;;18.20;99.90;;;;;;5053581;28;20057;-25
2023/08/22 07:14:08;;;;;;;12.77;8.75;;;18.20;99.90;;;;;;5058055;28;20057;-25
2023/08/22 07:16:34;;;;;;;16.33;9.15;;;18.20;99.90;;;;;;5055848;28;20048;-26
2023/08/22 07:18:59;;;;;;;14.07;8.55;;;18.20;99.90;;;;;;5072400;28;20064;-27
2023/08/22 07:21:26;;;;;;;14.40;8.07;;;18.30;99.90;;;;;;5073562;28;20049;-26
2023/08/22 07:23:51;;;;;;;15.63;7.85;;;18.40;99.90;;;;;;5070714;28;20055;-25
2023/08/22 07:26:17;;;;;;;14.60;8.38;;;18.50;99.90;;;;;;5063269;28;20045;-26
2023/08/22 07:28:43;;;;;;;12.13;7.70;;;18.60;99.90;;;;;;5052384;28;20049;-26
2023/08/22 07:31:09;;;;;;;13.82;7.35;;;18.70;99.90;;;;;;5065791;28;20098;-26
2023/08/22 07:33:34;;;;;;;11.60;7.78;;;18.80;99.90;;;;;;5065023;28;20494;-26
2023/08/22 07:36:01;;;;;;;12.48;9.15;;;18.90;99.90;;;;;;5053002;28;20055;-26
2023/08/22 07:38:27;;;;;;;10.32;6.93;;;19.10;99.90;;;;;;5053201;28;20056;-25
2023/08/22 07:40:52;;;;;;;9.60;7.43;;;19.20;99.90;;;;;;5051786;28;20102;-26
2023/08/22 07:43:18;;;;;;;11.68;7.95;;;19.50;99.90;;;;;;5052670;28;20044;-25
2023/08/22 07:45:44;;;;;;;11.38;6.70;;;19.70;99.90;;;;;;5052638;28;20037;-26
2023/08/22 07:48:10;;;;;;;10.85;6.78;;;19.90;99.90;;;;;;5052341;28;20045;-25
2023/08/22 07:50:35;;;;;;;13.07;7.22;;;19.90;99.90;;;;;;5061622;28;20041;-25
2023/08/22 07:53:04;;;;;;;14.00;6.47;;;19.90;99.90;;;;;;5072780;28;20037;-25
2023/08/22 07:55:30;;;;;;;13.65;6.05;;;19.90;99.90;;;;;;5069363;28;20040;-26
2023/08/22 07:57:56;;;;;;;9.70;6.43;;;19.80;99.90;;;;;;5076195;28;20056;-26
2023/08/22 08:00:22;;;;;;;11.10;6.13;;;19.70;99.90;;;;;;5077000;28;20139;-26
2023/08/22 08:02:49;;;;;;;11.05;6.28;;;19.70;99.90;;;;;;5075657;28;20045;-27
2023/08/22 08:05:15;;;;;;;9.20;6.05;;;19.60;99.90;;;;;;5072893;28;20047;-25
2023/08/22 08:07:41;;;;;;;9.35;6.80;;;19.60;99.90;;;;;;5063968;28;20049;-25
2023/08/22 08:10:07;;;;;;;10.70;5.45;;;19.50;99.90;;;;;;5056762;28;20092;-26
2023/08/22 08:12:33;;;;;;;13.32;5.15;;;19.60;99.90;;;;;;5055067;28;20110;-26
2023/08/22 08:14:58;;;;;;;10.48;5.10;;;19.80;99.90;;;;;;5055436;28;20049;-25
2023/08/22 08:17:25;;;;;;;11.50;5.40;;;19.90;99.90;;;;;;5058641;28;20116;-25
2023/08/22 08:19:51;;;;;;;6.72;4.68;;;20.10;99.90;;;;;;5070637;28;20120;-25
2023/08/22 08:22:17;;;;;;;8.10;4.75;;;20.40;99.90;;;;;;5055619;28;20084;-27
2023/08/22 08:24:43;;;;;;;9.00;4.88;;;20.50;99.90;;;;;;5056532;28;20053;-27
2023/08/22 08:27:09;;;;;;;7.82;4.05;;;20.60;99.90;;;;;;5056468;28;20053;-26
2023/08/22 08:29:35;;;;;;;6.40;3.35;;;20.80;23.00;;;;;;5056368;28;20044;-26
2023/08/22 08:32:01;;;;;;;9.23;3.95;;;20.90;8.80;;;;;;5070909;28;20052;-27
2023/08/22 08:34:26;;;;;;;5.85;3.30;;;20.80;1.00;;;;;;5076211;28;20048;-27
2023/08/22 08:36:52;;;;;;;7.65;4.72;;;20.60;1.00;;;;;;5076282;28;20098;-27
2023/08/22 08:39:18;;;;;;;5.57;3.45;;;20.60;1.00;;;;;;5076381;28;20441;-27
2023/08/22 08:41:58;;;;;;;5.88;4.25;;;20.60;1.00;;;;;;5074481;28;20044;-27
2023/08/22 08:44:26;;;;;;;6.97;4.05;;;20.60;99.90;;;;;;5076433;28;20048;-27
2023/08/22 08:46:54;;;;;;;8.23;4.35;;;20.60;1.00;;;;;;5076059;28;20076;-26
2023/08/22 08:49:20;;;;;;;7.32;3.78;;;20.80;1.00;;;;;;5070806;28;20478;-26
2023/08/22 08:51:47;;;;;;;10.27;4.03;;;21.00;1.00;;;;;;5066197;28;20098;-27
2023/08/22 08:54:13;;;;;;;8.63;3.28;;;21.30;1.00;;;;;;5055824;28;20048;-27
2023/08/22 08:56:40;;;;;;;5.53;3.22;;;21.60;99.90;;;;;;5056137;28;20045;-27
2023/08/22 08:59:06;;;;;;;7.95;3.83;;;21.50;99.90;;;;;;5055673;28;20049;-27
2023/08/22 09:01:33;;;;;;;6.90;3.83;;;21.40;99.90;;;;;;5055153;28;20045;-27
2023/08/22 09:04:00;;;;;;;6.00;3.42;;;21.40;99.90;;;;;;5055601;28;20508;-26
2023/08/22 09:06:26;;;;;;;7.20;4.40;;;21.30;99.90;;;;;;5055972;28;20535;-27
2023/08/22 09:09:08;;;;;;;6.10;4.25;;;21.30;99.90;;;;;;5053646;28;20048;-27
2023/08/22 09:11:34;;;;;;;6.85;3.60;;;21.30;1.00;;;;;;5054713;28;20418;-27
2023/08/22 09:14:00;;;;;;;9.63;3.95;;;21.50;99.90;;;;;;5063270;28;20086;-27
2023/08/22 09:16:27;;;;;;;5.88;3.80;;;21.90;99.90;;;;;;5075818;28;20048;-27
2023/08/22 09:19:03;;;;;;;7.03;3.83;;;22.10;1.00;;;;;;5066343;28;20045;-27
2023/08/22 09:21:29;;;;;;;5.40;3.70;;;22.50;78.50;;;;;;5055050;28;20040;-25
2023/08/22 09:24:10;;;;;;;9.73;4.35;;;23.10;1.00;;;;;;5055083;28;20494;-27
2023/08/22 09:26:37;;;;;;;8.40;4.35;;;23.70;99.90;;;;;;5055295;28;20474;-27
2023/08/22 09:29:07;;;;;;;7.85;4.30;;;23.80;99.90;;;;;;5055263;28;20128;-27
2023/08/22 09:31:36;;;;;;;6.85;4.28;;;24.40;99.90;;;;;;5055190;28;20043;-27
2023/08/22 09:34:09;;;;;;;6.78;4.43;;;24.90;99.90;;;;;;5055333;28;20090;-26
2023/08/22 09:36:46;;;;;;;7.40;3.80;;;25.20;99.90;;;;;;5054661;28;20049;-27
2023/08/22 09:39:16;;;;;;;10.23;3.90;;;25.40;99.90;;;;;;5054965;28;20624;-27
2023/08/22 09:41:42;;;;;;;8.02;4.22;;;25.60;1.00;;;;;;5055851;28;20040;-27
2023/08/22 09:44:10;;;;;;;7.35;3.90;;;25.60;99.90;;;;;;5057754;28;20048;-27
2023/08/22 09:46:40;;;;;;;9.25;4.15;;;25.80;99.90;;;;;;5054818;28;20110;-27
2023/08/22 09:49:09;;;;;;;7.60;4.07;;;25.20;99.90;;;;;;5059337;28;20401;-26
2023/08/22 09:51:35;;;;;;;6.65;4.50;;;24.90;1.00;;;;;;5059300;28;20051;-26
2023/08/22 09:54:03;;;;;;;7.97;4.27;;;24.90;35.40;;;;;;5055717;28;20048;-26
2023/08/22 09:56:31;;;;;;;7.70;4.38;;;25.40;1.00;;;;;;5074626;28;20044;-26
2023/08/22 09:59:00;;;;;;;8.80;4.45;;;25.40;99.90;;;;;;5062852;28;20442;-26
2023/08/22 10:01:29;;;;;;;6.80;4.13;;;25.60;21.30;;;;;;5074498;28;20131;-26
2023/08/22 10:03:55;;;;;;;4.88;3.30;;;25.90;99.90;;;;;;5075004;28;20088;-26
2023/08/22 10:06:29;;;;;;;7.63;4.38;;;26.10;99.90;;;;;;5074316;28;20045;-27
2023/08/22 10:08:55;;;;;;;6.40;4.13;;;25.70;99.90;;;;;;5057405;28;20056;-26
2023/08/22 10:11:22;;;;;;;9.15;5.03;;;25.70;99.90;;;;;;5057027;28;20051;-26
2023/08/22 10:13:50;;;;;;;7.97;4.78;;;26.20;99.90;;;;;;5056568;28;20411;-27
2023/08/22 10:16:15;;;;;;;9.52;4.43;;;26.40;99.90;;;;;;5054199;28;20521;-27
2023/08/22 10:18:41;;;;;;;4.85;3.58;;;26.20;99.90;;;;;;5055061;28;20057;-27
2023/08/22 10:21:07;;;;;;;8.32;4.60;;;26.10;1.00;;;;;;5054214;28;20487;-27
2023/08/22 10:23:51;;;;;;;6.25;3.97;;;26.30;1.00;;;;;;5054433;28;20053;-27
2023/08/22 10:26:21;;;;;;;7.90;4.30;;;26.50;99.90;;;;;;5054404;28;20383;-27
2023/08/22 10:29:12;;;;;;;6.47;4.10;;;26.40;99.90;;;;;;5053796;28;20510;-28
2023/08/22 10:32:02;;;;;;;6.47;4.13;;;26.30;99.90;;;;;;5054045;28;20171;-28
2023/08/22 10:34:34;;;;;;;6.25;2.70;;;26.40;1.00;;;;;;5055898;28;20592;-27
2023/08/22 10:37:03;;;;;;;5.93;3.30;;;26.60;1.00;;;;;;5059999;28;20441;-27
2023/08/22 10:39:43;;;;;;;10.57;3.50;;;27.20;1.00;;;;;;5067430;28;20041;-24
2023/08/22 10:42:25;;;;;;;5.63;2.85;;;27.20;1.00;;;;;;5064991;28;20058;-27
2023/08/22 10:44:53;;;;;;;6.07;2.70;;;26.80;99.90;;;;;;5057472;28;20045;-27
2023/08/22 10:47:32;;;;;;;6.47;2.47;;;26.40;99.90;;;;;;5068121;28;20044;-27
2023/08/22 10:50:00;;;;;;;5.18;2.55;;;26.00;1.00;;;;;;5073833;28;20048;-29
2023/08/22 10:52:37;;;;;;;3.33;1.33;;;25.70;32.90;;;;;;5071116;28;20045;-27
2023/08/22 10:55:03;;;;;;;3.45;1.25;;;26.10;99.90;;;;;;5063489;28;20044;-27
2023/08/22 10:57:31;;;;;;;4.15;1.77;;;26.40;99.90;;;;;;5073348;28;20060;-27
2023/08/22 10:59:59;;;;;;;4.40;1.38;;;27.00;99.90;;;;;;5056927;28;20120;-27
2023/08/22 11:02:29;;;;;;;3.65;1.60;;;26.80;9.70;;;;;;5053351;28;20049;-28
2023/08/22 11:05:00;;;;;;;5.38;2.15;;;26.50;37.40;;;;;;5053657;28;20048;-27
2023/08/22 11:07:27;;;;;;;3.60;1.42;;;26.30;99.90;;;;;;5053650;28;20495;-27
2023/08/22 11:09:56;;;;;;;5.28;1.85;;;26.70;99.90;;;;;;5053879;28;20403;-27
2023/08/22 11:12:24;;;;;;;5.53;1.77;;;27.20;99.90;;;;;;5070585;28;20418;-27
2023/08/22 11:14:52;;;;;;;8.85;2.03;;;27.40;99.90;;;;;;5066737;28;20047;-27
2023/08/22 11:17:20;;;;;;;7.40;1.73;;;27.00;99.90;;;;;;5053501;28;20049;-27
2023/08/22 11:19:46;;;;;;;6.00;2.15;;;26.50;99.90;;;;;;5053430;28;20099;-27
2023/08/22 11:22:13;;;;;;;6.28;1.75;;;26.60;99.90;;;;;;5053489;28;20053;-28
2023/08/22 11:24:43;;;;;;;5.45;1.95;;;26.70;99.90;;;;;;5057464;28;20037;-27
2023/08/22 11:27:08;;;;;;;4.88;2.00;;;26.80;10.60;;;;;;5071379;28;20048;-27
2023/08/22 11:29:49;;;;;;;4.00;1.33;;;27.00;99.90;;;;;;5073981;28;20131;-28
2023/08/22 11:32:27;;;;;;;4.53;2.15;;;27.20;99.90;;;;;;5076286;28;20083;-27
2023/08/22 11:35:01;;;;;;;8.43;2.83;;;27.30;1.00;;;;;;5075057;28;20044;-28
2023/08/22 11:37:29;;;;;;;7.43;2.58;;;27.20;1.00;;;;;;5057668;28;20127;-28
2023/08/22 11:39:57;;;;;;;5.72;1.92;;;27.00;31.00;;;;;;5057131;28;20048;-28
2023/08/22 11:42:24;;;;;;;5.25;2.05;;;26.90;1.00;;;;;;5057033;28;20045;-27
2023/08/22 11:45:08;;;;;;;7.43;2.25;;;26.50;83.40;;;;;;5057664;28;20114;-27
2023/08/22 11:47:47;;;;;;;4.35;1.88;;;26.10;1.00;;;;;;5063487;28;20052;-28
2023/08/22 11:50:29;;;;;;;5.00;1.75;;;25.50;1.00;;;;;;5066021;28;20052;-26
2023/08/22 11:52:57;;;;;;;4.20;1.75;;;25.50;99.90;;;;;;5060773;28;20048;-28
2023/08/22 11:55:27;;;;;;;5.50;1.90;;;25.60;99.90;;;;;;5060390;28;20123;-27
2023/08/22 11:58:04;;;;;;;3.97;1.80;;;25.80;99.90;;;;;;5056404;28;20502;-27
2023/08/22 12:00:34;;;;;;;5.70;1.85;;;25.90;99.90;;;;;;5057055;28;20049;-28
2023/08/22 12:03:02;;;;;;;5.03;2.10;;;25.40;99.90;;;;;;5059318;28;20486;-27
2023/08/22 12:05:34;;;;;;;4.28;1.98;;;25.60;1.00;;;;;;5072824;28;20040;-27
2023/08/22 12:08:01;;;;;;;5.18;3.15;;;26.20;99.90;;;;;;5074032;28;20048;-27
2023/08/22 12:10:41;;;;;;;5.60;2.78;;;26.50;99.90;;;;;;5063686;28;20064;-27
2023/08/22 12:13:08;;;;;;;5.38;3.17;;;26.90;99.90;;;;;;5066747;28;20069;-28
2023/08/22 12:15:34;;;;;;;7.68;3.10;;;26.80;69.50;;;;;;5063344;28;20044;-29
2023/08/22 12:18:01;;;;;;;6.15;3.53;;;25.80;99.90;;;;;;5058226;28;20040;-27
2023/08/22 12:20:27;;;;;;;8.57;3.55;;;25.80;1.00;;;;;;5055639;28;20060;-29
2023/08/22 12:22:53;;;;;;;7.70;3.28;;;26.20;91.10;;;;;;5056127;28;20053;-27
2023/08/22 12:25:20;;;;;;;7.15;3.53;;;25.90;99.90;;;;;;5056667;28;20099;-28
2023/08/22 12:27:46;;;;;;;4.43;2.63;;;25.70;1.00;;;;;;5058461;28;20048;-27
2023/08/22 12:30:11;;;;;;;9.38;3.67;;;25.90;99.90;;;;;;5055696;28;20071;-27
2023/08/22 12:32:37;;;;;;;6.00;2.67;;;26.20;99.90;;;;;;5056352;28;20475;-28
2023/08/22 12:35:03;;;;;;;5.32;2.75;;;25.70;99.90;;;;;;5054771;28;20052;-27
2023/08/22 12:37:30;;;;;;;4.18;2.50;;;25.70;99.90;;;;;;5056197;28;20071;-27
2023/08/22 12:39:55;;;;;;;5.15;3.10;;;25.80;99.90;;;;;;5055138;28;20522;-29